createdAt,value
2023-01-21T00:01:20.392Z,0.73
2023-01-21T00:06:20.339Z,0.76
2023-01-21T00:11:20.245Z,0.79
2023-01-21T00:16:20.188Z,0.83
2023-01-21T00:21:20.144Z,0.85
2023-01-21T00:26:20.040Z,0.87
2023-01-21T00:31:20.064Z,0.88
2023-01-21T00:36:19.921Z,0.87
2023-01-21T00:41:19.887Z,0.85
2023-01-21T00:46:19.850Z,0.81
2023-01-21T00:51:19.850Z,0.76
2023-01-21T00:56:19.683Z,0.69
2023-01-21T01:01:19.658Z,0.62
2023-01-21T01:06:34.211Z,0.55
2023-01-21T01:11:26.624Z,0.45
2023-01-21T01:16:26.568Z,0.36
2023-01-21T01:21:26.496Z,0.28
2023-01-21T01:26:26.435Z,0.21
2023-01-21T01:31:26.398Z,0.15
2023-01-21T01:36:26.298Z,0.09
2023-01-21T01:41:26.253Z,0.03
2023-01-21T01:46:26.204Z,-0.03
2023-01-21T01:51:26.141Z,-0.09
2023-01-21T01:56:26.047Z,-0.14
2023-01-21T02:01:26.007Z,-0.19
2023-01-21T02:06:25.924Z,-0.24
2023-01-21T02:11:25.875Z,-0.28
2023-01-21T02:16:25.835Z,-0.32
2023-01-21T02:21:25.732Z,-0.35
2023-01-21T02:26:25.664Z,-0.38
2023-01-21T02:31:25.671Z,-0.40
2023-01-21T02:36:25.532Z,-0.41
2023-01-21T02:41:25.483Z,-0.42
2023-01-21T02:46:25.433Z,-0.45
2023-01-21T02:51:25.365Z,-0.48
2023-01-21T02:56:25.288Z,-0.52
2023-01-21T03:01:25.243Z,-0.54
2023-01-21T03:06:25.158Z,-0.56
2023-01-21T03:11:25.104Z,-0.57
2023-01-21T03:16:25.059Z,-0.58
2023-01-21T03:21:24.986Z,-0.59
2023-01-21T03:26:24.912Z,-0.61
2023-01-21T03:31:24.869Z,-0.64
2023-01-21T03:36:24.775Z,-0.68
2023-01-21T03:41:24.722Z,-0.71
2023-01-21T03:46:24.661Z,-0.75
2023-01-21T03:51:24.607Z,-0.80
2023-01-21T03:56:24.520Z,-0.85
2023-01-21T04:01:24.467Z,-0.91
2023-01-21T04:06:24.397Z,-0.98
2023-01-21T04:11:24.327Z,-1.08
2023-01-21T04:16:24.319Z,-1.19
2023-01-21T04:21:24.213Z,-1.32
2023-01-21T04:26:24.119Z,-1.42
2023-01-21T04:31:24.122Z,-1.54
2023-01-21T04:36:24.073Z,-1.66
2023-01-21T04:41:25.472Z,-1.80
2023-01-21T04:46:23.876Z,-1.93
2023-01-21T04:51:23.854Z,-2.05
2023-01-21T04:56:23.755Z,-2.16
2023-01-21T05:01:23.776Z,-2.24
2023-01-21T05:06:23.632Z,-2.32
2023-01-21T05:11:23.592Z,-2.40
2023-01-21T05:16:55.932Z,-2.47
2023-01-21T05:21:48.306Z,-2.56
2023-01-21T05:26:48.319Z,-2.66
2023-01-21T05:31:48.164Z,-2.75
2023-01-21T05:36:48.125Z,-2.82
2023-01-21T05:41:48.044Z,-2.88
2023-01-21T05:46:48.001Z,-2.94
2023-01-21T05:51:47.923Z,-3.00
2023-01-21T05:56:47.904Z,-3.04
2023-01-21T06:01:47.779Z,-3.09
2023-01-21T06:06:47.762Z,-3.15
2023-01-21T06:11:47.662Z,-3.22
2023-01-21T06:16:47.600Z,-3.27
2023-01-21T06:21:47.554Z,-3.32
2023-01-21T06:26:47.497Z,-3.36
2023-01-21T06:31:47.607Z,-3.40
2023-01-21T06:36:47.389Z,-3.44
2023-01-21T06:41:47.325Z,-3.47
2023-01-21T06:47:00.209Z,-3.50
2023-01-21T06:51:48.173Z,-3.54
2023-01-21T06:56:47.114Z,-3.57
2023-01-21T07:01:47.106Z,-3.61
2023-01-21T07:06:46.980Z,-3.64
2023-01-21T07:11:46.978Z,-3.68
2023-01-21T07:16:46.870Z,-3.72
2023-01-21T07:21:46.768Z,-3.75
2023-01-21T07:26:46.751Z,-3.77
2023-01-21T07:31:46.768Z,-3.77
2023-01-21T07:36:46.604Z,-3.78
2023-01-21T07:41:46.548Z,-3.78
2023-01-21T07:46:46.559Z,-3.77
2023-01-21T07:51:46.417Z,-3.74
2023-01-21T07:56:46.371Z,-3.68
2023-01-21T08:01:46.380Z,-3.60
2023-01-21T08:06:46.270Z,-3.50
2023-01-21T08:11:46.167Z,-3.40
2023-01-21T08:16:46.117Z,-3.30
2023-01-21T08:21:46.029Z,-3.18
2023-01-21T08:26:45.985Z,-3.04
2023-01-21T08:31:45.949Z,-2.86
2023-01-21T08:36:45.846Z,-2.56
2023-01-21T08:41:45.785Z,-2.13
2023-01-21T08:46:45.742Z,-1.67
2023-01-21T08:51:45.675Z,-1.22
2023-01-21T08:56:45.624Z,-0.78
2023-01-21T09:01:45.561Z,-0.36
2023-01-21T09:06:45.495Z,0.04
2023-01-21T09:11:45.438Z,0.52
2023-01-21T09:16:45.376Z,1.09
2023-01-21T09:21:45.356Z,1.66
2023-01-21T09:26:45.284Z,2.18
2023-01-21T09:31:45.203Z,2.67
2023-01-21T09:36:45.126Z,3.08
2023-01-21T09:41:45.008Z,3.38
2023-01-21T09:46:44.974Z,3.57
2023-01-21T09:51:44.886Z,3.65
2023-01-21T09:56:44.850Z,3.63
2023-01-21T10:01:44.790Z,3.66
2023-01-21T10:06:44.735Z,3.84
2023-01-21T10:11:46.184Z,4.05
2023-01-21T10:16:44.680Z,4.11
2023-01-21T10:21:44.509Z,4.06
2023-01-21T10:26:44.484Z,4.10
2023-01-21T10:31:44.504Z,4.24
2023-01-21T10:36:44.347Z,4.46
2023-01-21T10:41:44.316Z,4.76
2023-01-21T10:46:44.196Z,5.07
2023-01-21T10:51:44.129Z,5.38
2023-01-21T10:56:44.142Z,5.65
2023-01-21T11:01:43.996Z,5.84
2023-01-21T11:06:44.005Z,5.96
2023-01-21T11:11:44.253Z,6.06
2023-01-21T11:16:43.803Z,5.90
2023-01-21T11:21:43.738Z,5.51
2023-01-21T11:26:43.751Z,5.07
2023-01-21T11:31:43.704Z,4.66
2023-01-21T11:36:43.566Z,4.29
2023-01-21T11:41:43.497Z,3.98
2023-01-21T11:46:43.429Z,3.76
2023-01-21T11:51:43.399Z,3.67
2023-01-21T11:56:43.330Z,3.63
2023-01-21T12:01:43.223Z,3.59
2023-01-21T12:06:43.159Z,3.65
2023-01-21T12:11:43.101Z,3.85
2023-01-21T12:16:43.051Z,4.07
2023-01-21T12:21:43.001Z,4.12
2023-01-21T12:26:42.916Z,4.02
2023-01-21T12:31:43.001Z,3.88
2023-01-21T12:36:42.794Z,3.78
2023-01-21T12:41:42.711Z,3.73
2023-01-21T12:46:42.713Z,3.66
2023-01-21T12:51:42.598Z,3.60
2023-01-21T12:56:42.561Z,3.60
2023-01-21T13:01:42.513Z,3.57
2023-01-21T13:06:53.532Z,3.55
2023-01-21T13:11:43.336Z,3.53
2023-01-21T13:16:42.310Z,3.50
2023-01-21T13:21:42.177Z,3.48
2023-01-21T13:26:42.135Z,3.49
2023-01-21T13:31:42.157Z,3.42
2023-01-21T13:36:42.057Z,3.30
2023-01-21T13:41:41.940Z,3.20
2023-01-21T13:46:41.919Z,3.16
2023-01-21T13:51:41.834Z,3.13
2023-01-21T13:56:41.759Z,3.07
2023-01-21T14:01:41.684Z,2.98
2023-01-21T14:06:41.638Z,2.83
2023-01-21T14:11:41.522Z,2.69
2023-01-21T14:16:41.541Z,2.61
2023-01-21T14:21:41.423Z,2.52
2023-01-21T14:26:41.406Z,2.38
2023-01-21T14:31:41.365Z,2.19
2023-01-21T14:36:41.269Z,2.00
2023-01-21T14:41:41.186Z,1.84
2023-01-21T14:46:41.136Z,1.76
2023-01-21T14:51:41.034Z,1.74
2023-01-21T14:56:40.976Z,1.75
2023-01-21T15:01:40.903Z,1.76
2023-01-21T15:06:40.878Z,1.78
2023-01-21T15:11:40.793Z,1.80
2023-01-21T15:16:40.827Z,1.83
2023-01-21T15:21:40.666Z,1.85
2023-01-21T15:26:40.596Z,1.86
2023-01-21T15:31:40.591Z,1.85
2023-01-21T15:36:40.471Z,1.82
2023-01-21T15:41:40.395Z,1.75
2023-01-21T15:46:40.338Z,1.62
2023-01-21T15:51:40.297Z,1.46
2023-01-21T15:56:41.802Z,1.28
2023-01-21T16:01:40.185Z,1.09
2023-01-21T16:06:40.100Z,0.93
2023-01-21T16:11:40.006Z,0.82
2023-01-21T16:16:39.953Z,0.72
2023-01-21T16:21:39.894Z,0.64
2023-01-21T16:26:39.853Z,0.58
2023-01-21T16:31:43.161Z,0.54
2023-01-21T16:36:39.713Z,0.50
2023-01-21T16:41:39.644Z,0.48
2023-01-21T16:46:39.572Z,0.46
2023-01-21T16:51:39.508Z,0.45
2023-01-21T16:56:39.466Z,0.44
2023-01-21T17:01:39.526Z,0.43
2023-01-21T17:06:39.326Z,0.42
2023-01-21T17:11:39.251Z,0.41
2023-01-21T17:16:39.199Z,0.37
2023-01-21T17:21:39.119Z,0.32
2023-01-21T17:26:39.076Z,0.27
2023-01-21T17:31:39.068Z,0.23
2023-01-21T17:36:39.003Z,0.18
2023-01-21T17:41:38.860Z,0.15
2023-01-21T17:46:38.874Z,0.13
2023-01-21T17:51:38.738Z,0.12
2023-01-21T17:56:38.684Z,0.12
2023-01-21T18:01:38.756Z,0.11
2023-01-21T18:06:38.574Z,0.10
2023-01-21T18:11:38.481Z,0.09
2023-01-21T18:16:38.479Z,0.08
2023-01-21T18:21:38.362Z,0.07
2023-01-21T18:26:38.340Z,0.06
2023-01-21T18:31:38.335Z,0.04
2023-01-21T18:36:38.194Z,0.01
2023-01-21T18:41:38.120Z,-0.01
2023-01-21T18:46:38.107Z,-0.03
2023-01-21T18:51:37.991Z,-0.05
2023-01-21T18:56:37.998Z,-0.07
2023-01-21T19:01:38.009Z,-0.08
2023-01-21T19:06:37.808Z,-0.09
2023-01-21T19:11:37.718Z,-0.09
2023-01-21T19:16:37.687Z,-0.09
2023-01-21T19:21:37.615Z,-0.08
2023-01-21T19:26:37.553Z,-0.07
2023-01-21T19:31:37.561Z,-0.06
2023-01-21T19:36:37.443Z,-0.06
2023-01-21T19:41:37.325Z,-0.06
2023-01-21T19:46:37.383Z,-0.06
2023-01-21T19:51:37.231Z,-0.06
2023-01-21T19:56:37.181Z,-0.06
2023-01-21T20:01:39.017Z,-0.07
2023-01-21T20:06:37.060Z,-0.08
2023-01-21T20:11:36.957Z,-0.08
2023-01-21T20:16:36.931Z,-0.09
2023-01-21T20:21:40.216Z,-0.09
2023-01-21T20:26:37.785Z,-0.10
2023-01-21T20:31:36.743Z,-0.11
2023-01-21T20:36:36.652Z,-0.11
2023-01-21T20:41:36.598Z,-0.11
2023-01-21T20:46:36.559Z,-0.12
2023-01-21T20:51:36.467Z,-0.11
2023-01-21T20:56:36.402Z,-0.10
2023-01-21T21:01:36.381Z,-0.09
2023-01-21T21:06:36.303Z,-0.07
2023-01-21T21:11:36.239Z,-0.04
2023-01-21T21:16:36.183Z,-0.02
2023-01-21T21:21:36.092Z,-0.01
2023-01-21T21:26:36.019Z,-0.00
2023-01-21T21:31:35.957Z,-0.02
2023-01-21T21:36:35.904Z,-0.03
2023-01-21T21:41:35.843Z,-0.03
2023-01-21T21:46:36.566Z,-0.02
2023-01-21T21:51:35.699Z,0.01
2023-01-21T21:56:35.644Z,0.05
2023-01-21T22:01:35.667Z,0.10
2023-01-21T22:06:35.525Z,0.13
2023-01-21T22:11:35.475Z,0.16
2023-01-21T22:16:35.517Z,0.18
2023-01-21T22:21:35.349Z,0.20
2023-01-21T22:26:35.261Z,0.22
2023-01-21T22:31:35.347Z,0.23
2023-01-21T22:36:35.120Z,0.24
2023-01-21T22:41:35.089Z,0.25
2023-01-21T22:46:34.981Z,0.25
2023-01-21T22:51:34.936Z,0.26
2023-01-21T22:56:50.900Z,0.28
2023-01-21T23:01:35.894Z,0.29
2023-01-21T23:06:36.780Z,0.32
2023-01-21T23:11:34.670Z,0.34
2023-01-21T23:16:34.757Z,0.36
2023-01-21T23:21:34.597Z,0.36
2023-01-21T23:26:34.483Z,0.35
2023-01-21T23:31:34.503Z,0.34
2023-01-21T23:36:34.359Z,0.34
2023-01-21T23:41:34.310Z,0.34
2023-01-21T23:46:34.222Z,0.35
2023-01-21T23:51:34.216Z,0.35
2023-01-21T23:56:34.102Z,0.36
